UAE448 OMDB-NZAA
Flight info
| Callsign | UAE448 |
|---|---|
| Flight time | N/A |
| Altitude | 31000 |
| Route | ANVIX L223 TARDI N629 GIDAN P570 EMURU M300 VASTU P895 GUTEG/N0495F330 P895 BIKOK M641 DOGAR DCT DAOVO DCT PIBED DCT 09S094E 10S095E/N0485F350 DCT POROR DCT 19S106E 21S109E DCT ATLOD DCT ISDOR/N0475F370 DCT LEO DCT 32S128E DCT KAMBI N640 AD V255 BENDO Y12 RELEP DCT MOMSY/N0466F390 DCT MIKEG N759 PEBLU |
| Aircraft | B77L/H-SDE1E2E3FGHIJ2J3J4J5M1RWXY/LB1D1 |
Departure
| Time | 2026-04-20 00:31 |
|---|---|
| Airport | Dubai International Airport (OMDB) |
Arrival
| Time | N/A |
|---|---|
| Airport | Auckland International Airport (NZAA) |
| Time | Latitude | Longitude | Altitude | Speed | Heading |
|---|---|---|---|---|---|
| 2026-04-19 23:59 | 25.24471 | 55.37142 | 25 ft | 0 kts | 211° |
| 2026-04-20 00:21 | 25.24472 | 55.37142 | 25 ft | 2 kts | 211° |
| 2026-04-20 00:22 | 25.24494 | 55.37157 | 27 ft | 4 kts | 211° |
| 2026-04-20 00:22 | 25.24517 | 55.37173 | 31 ft | 3 kts | 211° |
| 2026-04-20 00:22 | 25.24537 | 55.37184 | 31 ft | 4 kts | 192° |
| 2026-04-20 00:22 | 25.24560 | 55.37182 | 31 ft | 4 kts | 142° |
| 2026-04-20 00:23 | 25.24576 | 55.37162 | 31 ft | 4 kts | 122° |
| 2026-04-20 00:23 | 25.24590 | 55.37138 | 31 ft | 2 kts | 122° |
| 2026-04-20 00:23 | 25.24590 | 55.37136 | 31 ft | 0 kts | 122° |
| 2026-04-20 00:25 | 25.24567 | 55.37178 | 29 ft | 10 kts | 122° |
| 2026-04-20 00:26 | 25.24529 | 55.37246 | 28 ft | 10 kts | 122° |
| 2026-04-20 00:26 | 25.24490 | 55.37315 | 30 ft | 10 kts | 122° |
| 2026-04-20 00:26 | 25.24453 | 55.37382 | 28 ft | 10 kts | 121° |
| 2026-04-20 00:26 | 25.24431 | 55.37458 | 30 ft | 10 kts | 96° |
| 2026-04-20 00:27 | 25.24426 | 55.37538 | 28 ft | 10 kts | 94° |
| 2026-04-20 00:27 | 25.24416 | 55.37618 | 30 ft | 10 kts | 106° |
| 2026-04-20 00:27 | 25.24386 | 55.37683 | 29 ft | 10 kts | 122° |
| 2026-04-20 00:27 | 25.24376 | 55.37701 | 29 ft | 10 kts | 122° |
| 2026-04-20 00:28 | 25.24338 | 55.37769 | 30 ft | 10 kts | 120° |
| 2026-04-20 00:28 | 25.24358 | 55.37839 | 29 ft | 10 kts | 42° |
| 2026-04-20 00:28 | 25.24417 | 55.37886 | 28 ft | 10 kts | 35° |
| 2026-04-20 00:28 | 25.24476 | 55.37933 | 29 ft | 10 kts | 35° |
| 2026-04-20 00:29 | 25.24536 | 55.37978 | 26 ft | 10 kts | 34° |
| 2026-04-20 00:29 | 25.24596 | 55.38023 | 27 ft | 10 kts | 33° |
| 2026-04-20 00:29 | 25.24658 | 55.38065 | 28 ft | 10 kts | 31° |
| 2026-04-20 00:29 | 25.24714 | 55.38103 | 30 ft | 6 kts | 31° |
| 2026-04-20 00:30 | 25.24751 | 55.38107 | 30 ft | 6 kts | 340° |
| 2026-04-20 00:30 | 25.24779 | 55.38076 | 30 ft | 8 kts | 301° |
| 2026-04-20 00:30 | 25.24880 | 55.37893 | 30 ft | 60 kts | 302° |
| 2026-04-20 00:30 | 25.25228 | 55.37266 | 32 ft | 130 kts | 301° |
| 2026-04-20 00:31 | 25.25817 | 55.36205 | 31 ft | 191 kts | 301° |
| 2026-04-20 00:31 | 25.26548 | 55.34870 | 359 ft | 205 kts | 301° |
| 2026-04-20 00:31 | 25.27282 | 55.33515 | 896 ft | 207 kts | 300° |
| 2026-04-20 00:31 | 25.28037 | 55.32165 | 1524 ft | 206 kts | 302° |
| 2026-04-20 00:32 | 25.28803 | 55.30857 | 2117 ft | 198 kts | 301° |
| 2026-04-20 00:32 | 25.29234 | 55.29438 | 2416 ft | 198 kts | 267° |
| 2026-04-20 00:32 | 25.28907 | 55.27964 | 2668 ft | 200 kts | 249° |
| 2026-04-20 00:32 | 25.28337 | 55.26559 | 3016 ft | 201 kts | 247° |
| 2026-04-20 00:33 | 25.27739 | 55.25154 | 3329 ft | 203 kts | 248° |
| 2026-04-20 00:33 | 25.27132 | 55.23732 | 3639 ft | 205 kts | 248° |
| 2026-04-20 00:33 | 25.26521 | 55.22301 | 3946 ft | 207 kts | 248° |
| 2026-04-20 00:33 | 25.25900 | 55.20848 | 4168 ft | 216 kts | 248° |
| 2026-04-20 00:34 | 25.25239 | 55.19292 | 4328 ft | 230 kts | 248° |
| 2026-04-20 00:34 | 25.24472 | 55.17717 | 4563 ft | 242 kts | 232° |
| 2026-04-20 00:34 | 25.23027 | 55.16678 | 4781 ft | 256 kts | 193° |
| 2026-04-20 00:34 | 25.21219 | 55.16655 | 5012 ft | 267 kts | 175° |
| 2026-04-20 00:35 | 25.19398 | 55.16996 | 5304 ft | 273 kts | 156° |
| 2026-04-20 00:35 | 25.17893 | 55.18238 | 5571 ft | 277 kts | 121° |
| 2026-04-20 00:35 | 25.16990 | 55.20137 | 5807 ft | 284 kts | 114° |
| 2026-04-20 00:35 | 25.16086 | 55.22113 | 6279 ft | 291 kts | 115° |
| 2026-04-20 00:36 | 25.15136 | 55.24101 | 6814 ft | 293 kts | 116° |
| 2026-04-20 00:36 | 25.14176 | 55.26099 | 7372 ft | 296 kts | 116° |
| 2026-04-20 00:36 | 25.13207 | 55.28117 | 7924 ft | 298 kts | 116° |
| 2026-04-20 00:36 | 25.12232 | 55.30148 | 8450 ft | 301 kts | 116° |
| 2026-04-20 00:37 | 25.11244 | 55.32202 | 8964 ft | 305 kts | 115° |
| 2026-04-20 00:37 | 25.10270 | 55.34297 | 9505 ft | 308 kts | 112° |
| 2026-04-20 00:37 | 25.09382 | 55.36461 | 10021 ft | 311 kts | 111° |
| 2026-04-20 00:37 | 25.08502 | 55.38645 | 10557 ft | 312 kts | 111° |
| 2026-04-20 00:38 | 25.07611 | 55.40833 | 11102 ft | 313 kts | 111° |
| 2026-04-20 00:38 | 25.06724 | 55.43048 | 11527 ft | 320 kts | 110° |
| 2026-04-20 00:38 | 25.05844 | 55.45349 | 11673 ft | 338 kts | 110° |
| 2026-04-20 00:38 | 25.04911 | 55.47804 | 11812 ft | 356 kts | 110° |
| 2026-04-20 00:39 | 25.03923 | 55.50385 | 11960 ft | 373 kts | 110° |
| 2026-04-20 00:39 | 25.02885 | 55.53081 | 12128 ft | 390 kts | 110° |
| 2026-04-20 00:39 | 25.01797 | 55.55862 | 12501 ft | 399 kts | 113° |
| 2026-04-20 00:39 | 25.00463 | 55.58588 | 13016 ft | 406 kts | 119° |
| 2026-04-20 00:40 | 24.98955 | 55.61233 | 13635 ft | 409 kts | 121° |
| 2026-04-20 00:40 | 24.97431 | 55.63885 | 14198 ft | 411 kts | 120° |
| 2026-04-20 00:40 | 24.95939 | 55.66576 | 14733 ft | 413 kts | 119° |
| 2026-04-20 00:40 | 24.94457 | 55.69309 | 15221 ft | 417 kts | 119° |
| 2026-04-20 00:41 | 24.93441 | 55.71113 | 15526 ft | 420 kts | 122° |
| 2026-04-20 00:41 | 24.91743 | 55.73752 | 16030 ft | 424 kts | 125° |
| 2026-04-20 00:41 | 24.89955 | 55.76355 | 16528 ft | 427 kts | 126° |
| 2026-04-20 00:41 | 24.88156 | 55.78971 | 17042 ft | 430 kts | 125° |
| 2026-04-20 00:42 | 24.86369 | 55.81626 | 17534 ft | 433 kts | 124° |
| 2026-04-20 00:42 | 24.84581 | 55.84317 | 17991 ft | 437 kts | 124° |
| 2026-04-20 00:42 | 24.82775 | 55.87030 | 18409 ft | 440 kts | 125° |
| 2026-04-20 00:42 | 24.80967 | 55.89710 | 18830 ft | 443 kts | 126° |
| 2026-04-20 00:43 | 24.79117 | 55.92443 | 19261 ft | 445 kts | 126° |
| 2026-04-20 00:43 | 24.77187 | 55.95110 | 19640 ft | 447 kts | 133° |
| 2026-04-20 00:43 | 24.74924 | 55.97489 | 20009 ft | 451 kts | 139° |
| 2026-04-20 00:43 | 24.72538 | 55.99755 | 20418 ft | 454 kts | 139° |
| 2026-04-20 00:44 | 24.70180 | 56.02070 | 20854 ft | 456 kts | 137° |
| 2026-04-20 00:44 | 24.67873 | 56.04422 | 21277 ft | 458 kts | 137° |
| 2026-04-20 00:44 | 24.65545 | 56.06821 | 21679 ft | 460 kts | 137° |
| 2026-04-20 00:44 | 24.63198 | 56.09233 | 22065 ft | 463 kts | 137° |
| 2026-04-20 00:45 | 24.60834 | 56.11654 | 22459 ft | 466 kts | 137° |
| 2026-04-20 00:45 | 24.58461 | 56.14087 | 22861 ft | 468 kts | 137° |
| 2026-04-20 00:45 | 24.56136 | 56.16615 | 23239 ft | 471 kts | 133° |
| 2026-04-20 00:45 | 24.53978 | 56.19339 | 23569 ft | 473 kts | 131° |
| 2026-04-20 00:46 | 24.51847 | 56.22106 | 23898 ft | 475 kts | 131° |
| 2026-04-20 00:46 | 24.49708 | 56.24886 | 24233 ft | 477 kts | 131° |
| 2026-04-20 00:46 | 24.47553 | 56.27666 | 24586 ft | 478 kts | 131° |
| 2026-04-20 00:46 | 24.45387 | 56.30440 | 24933 ft | 479 kts | 131° |
| 2026-04-20 00:47 | 24.43236 | 56.33180 | 25258 ft | 480 kts | 131° |
| 2026-04-20 00:47 | 24.41048 | 56.35959 | 25588 ft | 482 kts | 131° |
| 2026-04-20 00:47 | 24.38853 | 56.38744 | 25915 ft | 484 kts | 131° |
| 2026-04-20 00:47 | 24.36646 | 56.41544 | 26231 ft | 486 kts | 131° |
| 2026-04-20 00:48 | 24.34427 | 56.44359 | 26548 ft | 488 kts | 131° |
| 2026-04-20 00:48 | 24.32204 | 56.47179 | 26866 ft | 489 kts | 131° |
| 2026-04-20 00:48 | 24.29976 | 56.50020 | 27182 ft | 491 kts | 130° |
| 2026-04-20 00:48 | 24.27895 | 56.53006 | 27495 ft | 493 kts | 126° |
| 2026-04-20 00:49 | 24.25888 | 56.56059 | 27817 ft | 495 kts | 126° |
| 2026-04-20 00:49 | 24.23879 | 56.59126 | 28122 ft | 496 kts | 126° |
| 2026-04-20 00:49 | 24.21860 | 56.62198 | 28471 ft | 497 kts | 126° |
| 2026-04-20 00:49 | 24.19832 | 56.65269 | 28771 ft | 498 kts | 126° |
| 2026-04-20 00:50 | 24.17791 | 56.68346 | 29075 ft | 500 kts | 126° |
| 2026-04-20 00:50 | 24.15768 | 56.71388 | 29437 ft | 499 kts | 126° |
| 2026-04-20 00:50 | 24.13703 | 56.74490 | 29890 ft | 497 kts | 126° |
| 2026-04-20 00:50 | 24.11692 | 56.77509 | 30247 ft | 496 kts | 126° |
| 2026-04-20 00:51 | 24.09656 | 56.80565 | 30517 ft | 497 kts | 126° |
| 2026-04-20 00:51 | 24.07615 | 56.83628 | 30752 ft | 498 kts | 126° |
| 2026-04-20 00:51 | 24.05565 | 56.86702 | 30806 ft | 501 kts | 126° |
| 2026-04-20 00:52 | 24.01452 | 56.92850 | 30848 ft | 498 kts | 126° |
| 2026-04-20 00:52 | 23.97358 | 56.98931 | 30858 ft | 495 kts | 126° |
| 2026-04-20 00:53 | 23.93282 | 57.04986 | 30860 ft | 494 kts | 126° |
| 2026-04-20 00:53 | 23.89229 | 57.11003 | 30862 ft | 495 kts | 126° |
| 2026-04-20 00:54 | 23.85123 | 57.17105 | 30853 ft | 496 kts | 126° |
| 2026-04-20 00:54 | 23.81058 | 57.23151 | 30869 ft | 498 kts | 126° |
| 2026-04-20 00:55 | 23.76950 | 57.29253 | 30862 ft | 499 kts | 126° |
| 2026-04-20 00:55 | 23.72828 | 57.35367 | 30867 ft | 501 kts | 126° |
| 2026-04-20 00:56 | 23.68600 | 57.41405 | 30860 ft | 501 kts | 128° |
| 2026-04-20 00:56 | 23.64229 | 57.47345 | 30865 ft | 502 kts | 128° |
| 2026-04-20 00:57 | 23.59875 | 57.53293 | 30856 ft | 501 kts | 128° |
| 2026-04-20 00:57 | 23.55547 | 57.59253 | 30877 ft | 500 kts | 128° |
| 2026-04-20 00:58 | 23.51235 | 57.65191 | 30871 ft | 500 kts | 128° |
| 2026-04-20 00:58 | 23.46945 | 57.71076 | 30883 ft | 499 kts | 128° |
| 2026-04-20 00:59 | 23.42623 | 57.76970 | 30878 ft | 497 kts | 128° |
| 2026-04-20 00:59 | 23.38302 | 57.82855 | 30882 ft | 496 kts | 128° |
| 2026-04-20 01:00 | 23.33998 | 57.88718 | 30881 ft | 495 kts | 128° |
| 2026-04-20 01:00 | 23.29692 | 57.94578 | 30874 ft | 495 kts | 128° |
| 2026-04-20 01:01 | 23.25385 | 58.00432 | 30873 ft | 495 kts | 128° |
| 2026-04-20 01:01 | 23.21395 | 58.06492 | 30879 ft | 494 kts | 123° |
| 2026-04-20 01:02 | 23.17532 | 58.12688 | 30878 ft | 494 kts | 123° |
| 2026-04-20 01:02 | 23.13654 | 58.18860 | 30883 ft | 495 kts | 123° |
| 2026-04-20 01:03 | 23.09754 | 58.25032 | 30876 ft | 495 kts | 123° |
| 2026-04-20 01:03 | 23.05877 | 58.31159 | 30895 ft | 495 kts | 123° |
| 2026-04-20 01:04 | 23.01533 | 58.36967 | 30870 ft | 496 kts | 135° |
| 2026-04-20 01:04 | 22.96077 | 58.41557 | 30894 ft | 497 kts | 147° |
| 2026-04-20 01:05 | 22.90130 | 58.45396 | 30891 ft | 497 kts | 148° |
| 2026-04-20 01:05 | 22.84202 | 58.49256 | 30883 ft | 497 kts | 147° |
| 2026-04-20 01:06 | 22.78297 | 58.53159 | 30894 ft | 497 kts | 147° |
| 2026-04-20 01:06 | 22.72385 | 58.57075 | 30902 ft | 498 kts | 147° |
| 2026-04-20 01:07 | 22.66503 | 58.60961 | 30900 ft | 499 kts | 147° |
| 2026-04-20 01:07 | 22.60565 | 58.64878 | 30893 ft | 500 kts | 147° |
| 2026-04-20 01:08 | 22.54611 | 58.68805 | 30886 ft | 501 kts | 147° |
| 2026-04-20 01:08 | 22.48657 | 58.72730 | 30894 ft | 502 kts | 147° |
| 2026-04-20 01:09 | 22.42688 | 58.76660 | 30888 ft | 503 kts | 147° |
| 2026-04-20 01:09 | 22.36707 | 58.80594 | 30899 ft | 503 kts | 147° |
| 2026-04-20 01:10 | 22.30730 | 58.84523 | 30886 ft | 503 kts | 147° |
| 2026-04-20 01:10 | 22.22264 | 58.91071 | 30900 ft | 500 kts | 135° |
| 2026-04-20 01:11 | 22.17612 | 58.96618 | 30902 ft | 498 kts | 127° |
| 2026-04-20 01:11 | 22.13218 | 59.02409 | 30895 ft | 498 kts | 128° |
| 2026-04-20 01:12 | 22.08802 | 59.08174 | 30884 ft | 499 kts | 128° |
| 2026-04-20 01:12 | 22.04364 | 59.13921 | 30892 ft | 498 kts | 128° |
| 2026-04-20 01:13 | 21.99922 | 59.19653 | 30875 ft | 498 kts | 128° |
| 2026-04-20 01:13 | 21.95478 | 59.25384 | 30870 ft | 498 kts | 128° |
| 2026-04-20 01:14 | 21.91037 | 59.31108 | 30869 ft | 498 kts | 128° |
| 2026-04-20 01:14 | 21.86621 | 59.36794 | 30869 ft | 498 kts | 128° |
| 2026-04-20 01:15 | 21.82181 | 59.42504 | 30863 ft | 497 kts | 128° |
| 2026-04-20 01:15 | 21.77736 | 59.48215 | 30862 ft | 498 kts | 128° |
| 2026-04-20 01:16 | 21.73289 | 59.53923 | 30855 ft | 498 kts | 128° |
| 2026-04-20 01:16 | 21.68841 | 59.59626 | 30859 ft | 498 kts | 128° |
| 2026-04-20 01:17 | 21.64385 | 59.65334 | 30847 ft | 498 kts | 128° |
| 2026-04-20 01:17 | 21.59924 | 59.71042 | 30853 ft | 499 kts | 128° |
| 2026-04-20 01:18 | 21.55478 | 59.76725 | 30850 ft | 499 kts | 128° |
| 2026-04-20 01:18 | 21.50990 | 59.82434 | 30853 ft | 499 kts | 128° |
| 2026-04-20 01:19 | 21.46496 | 59.88130 | 30849 ft | 500 kts | 128° |
| 2026-04-20 01:19 | 21.41997 | 59.93833 | 30844 ft | 500 kts | 128° |
| 2026-04-20 01:20 | 21.37493 | 59.99540 | 30853 ft | 501 kts | 128° |
| 2026-04-20 01:20 | 21.32986 | 60.05245 | 30852 ft | 501 kts | 128° |
| 2026-04-20 01:21 | 21.28472 | 60.10953 | 30849 ft | 502 kts | 128° |
| 2026-04-20 01:21 | 21.23982 | 60.16625 | 30858 ft | 502 kts | 128° |
| 2026-04-20 01:22 | 21.19460 | 60.22343 | 30854 ft | 502 kts | 128° |
| 2026-04-20 01:22 | 21.14940 | 60.28064 | 30853 ft | 502 kts | 128° |
| 2026-04-20 01:23 | 21.10421 | 60.33778 | 30855 ft | 503 kts | 128° |
| 2026-04-20 01:23 | 21.05899 | 60.39489 | 30855 ft | 503 kts | 128° |
| 2026-04-20 01:24 | 21.01398 | 60.45166 | 30857 ft | 502 kts | 128° |
| 2026-04-20 01:24 | 20.96867 | 60.50876 | 30856 ft | 503 kts | 128° |
| 2026-04-20 01:25 | 20.92332 | 60.56584 | 30862 ft | 503 kts | 128° |
| 2026-04-20 01:25 | 20.87817 | 60.62262 | 30863 ft | 503 kts | 128° |
| 2026-04-20 01:26 | 20.83279 | 60.67963 | 30861 ft | 504 kts | 128° |
| 2026-04-20 01:26 | 20.78736 | 60.73666 | 30860 ft | 504 kts | 128° |
| 2026-04-20 01:27 | 20.74185 | 60.79371 | 30864 ft | 504 kts | 129° |
| 2026-04-20 01:27 | 20.69625 | 60.85084 | 30860 ft | 505 kts | 129° |
| 2026-04-20 01:28 | 20.65065 | 60.90791 | 30870 ft | 505 kts | 129° |
| 2026-04-20 01:28 | 20.60667 | 60.96569 | 30856 ft | 504 kts | 122° |
| 2026-04-20 01:29 | 20.56913 | 61.02875 | 30869 ft | 503 kts | 120° |
| 2026-04-20 01:29 | 20.53189 | 61.09215 | 30868 ft | 504 kts | 120° |
| 2026-04-20 01:30 | 20.50075 | 61.14463 | 30875 ft | 504 kts | 121° |
| 2026-04-20 01:30 | 20.46299 | 61.20783 | 30873 ft | 505 kts | 121° |
| 2026-04-20 01:31 | 20.42520 | 61.27087 | 30873 ft | 505 kts | 121° |
| 2026-04-20 01:31 | 20.38732 | 61.33400 | 30873 ft | 505 kts | 121° |
| 2026-04-20 01:32 | 20.34944 | 61.39711 | 30873 ft | 505 kts | 121° |
| 2026-04-20 01:32 | 20.31179 | 61.45976 | 30873 ft | 505 kts | 121° |
| 2026-04-20 01:33 | 20.27380 | 61.52292 | 30878 ft | 506 kts | 121° |
| 2026-04-20 01:33 | 20.23582 | 61.58598 | 30876 ft | 505 kts | 121° |
| 2026-04-20 01:34 | 20.19779 | 61.64906 | 30876 ft | 505 kts | 121° |
| 2026-04-20 01:34 | 20.16008 | 61.71156 | 30876 ft | 505 kts | 121° |
| 2026-04-20 01:35 | 20.12211 | 61.77440 | 30881 ft | 504 kts | 121° |
| 2026-04-20 01:35 | 20.08417 | 61.83713 | 30877 ft | 504 kts | 121° |
| 2026-04-20 01:36 | 20.04617 | 61.89989 | 30880 ft | 504 kts | 121° |
| 2026-04-20 01:36 | 20.00817 | 61.96259 | 30879 ft | 504 kts | 121° |
| 2026-04-20 01:37 | 19.97020 | 62.02518 | 30879 ft | 503 kts | 121° |
| 2026-04-20 01:37 | 19.93242 | 62.08737 | 30878 ft | 503 kts | 121° |
| 2026-04-20 01:38 | 19.89439 | 62.14993 | 30878 ft | 503 kts | 121° |
| 2026-04-20 01:38 | 19.85637 | 62.21238 | 30878 ft | 503 kts | 121° |
| 2026-04-20 01:39 | 19.81823 | 62.27498 | 30883 ft | 504 kts | 121° |
| 2026-04-20 01:39 | 19.78012 | 62.33747 | 30883 ft | 504 kts | 121° |
| 2026-04-20 01:40 | 19.74197 | 62.39996 | 30880 ft | 505 kts | 121° |
| 2026-04-20 01:40 | 19.70401 | 62.46207 | 30882 ft | 505 kts | 121° |
| 2026-04-20 01:41 | 19.66576 | 62.52458 | 30882 ft | 505 kts | 121° |
| 2026-04-20 01:41 | 19.62747 | 62.58710 | 30879 ft | 505 kts | 121° |
| 2026-04-20 01:42 | 19.58907 | 62.64973 | 30884 ft | 506 kts | 121° |
| 2026-04-20 01:42 | 19.55064 | 62.71234 | 30881 ft | 506 kts | 121° |
| 2026-04-20 01:43 | 19.51225 | 62.77482 | 30890 ft | 506 kts | 122° |
| 2026-04-20 01:43 | 19.47384 | 62.83727 | 30889 ft | 506 kts | 121° |
| 2026-04-20 01:44 | 19.43558 | 62.89942 | 30887 ft | 506 kts | 122° |
| 2026-04-20 01:44 | 19.39707 | 62.96191 | 30890 ft | 506 kts | 122° |
| 2026-04-20 01:45 | 19.35850 | 63.02444 | 30890 ft | 507 kts | 122° |
| 2026-04-20 01:45 | 19.31989 | 63.08695 | 30885 ft | 507 kts | 122° |
| 2026-04-20 01:46 | 19.28129 | 63.14939 | 30894 ft | 507 kts | 122° |
| 2026-04-20 01:46 | 19.24260 | 63.21192 | 30890 ft | 507 kts | 122° |
| 2026-04-20 01:47 | 19.20391 | 63.27438 | 30892 ft | 507 kts | 122° |
| 2026-04-20 01:47 | 19.16536 | 63.33655 | 30890 ft | 508 kts | 122° |
| 2026-04-20 01:48 | 19.12661 | 63.39899 | 30894 ft | 507 kts | 122° |
| 2026-04-20 01:48 | 19.08782 | 63.46143 | 30897 ft | 507 kts | 122° |
| 2026-04-20 01:49 | 19.04902 | 63.52384 | 30890 ft | 507 kts | 122° |
| 2026-04-20 01:49 | 19.01047 | 63.58578 | 30898 ft | 507 kts | 122° |
| 2026-04-20 01:50 | 18.97162 | 63.64811 | 30894 ft | 507 kts | 122° |
| 2026-04-20 01:50 | 18.93278 | 63.71035 | 30893 ft | 507 kts | 122° |
| 2026-04-20 01:51 | 18.89394 | 63.77256 | 30900 ft | 507 kts | 122° |
| 2026-04-20 01:51 | 18.85504 | 63.83484 | 30895 ft | 507 kts | 122° |
| 2026-04-20 01:52 | 18.81640 | 63.89662 | 30888 ft | 507 kts | 122° |
| 2026-04-20 01:52 | 18.77744 | 63.95887 | 30897 ft | 507 kts | 122° |
| 2026-04-20 01:53 | 18.73846 | 64.02107 | 30898 ft | 508 kts | 122° |
| 2026-04-20 01:53 | 18.69941 | 64.08334 | 30911 ft | 508 kts | 122° |
| 2026-04-20 01:54 | 18.66037 | 64.14551 | 30897 ft | 508 kts | 122° |
| 2026-04-20 01:54 | 18.62133 | 64.20763 | 30894 ft | 508 kts | 122° |
| 2026-04-20 01:55 | 18.58225 | 64.26975 | 30895 ft | 507 kts | 122° |
| 2026-04-20 01:55 | 18.54323 | 64.33171 | 30900 ft | 507 kts | 122° |
| 2026-04-20 01:56 | 18.50423 | 64.39359 | 30906 ft | 507 kts | 122° |
| 2026-04-20 01:56 | 18.46549 | 64.45500 | 30900 ft | 507 kts | 122° |
| 2026-04-20 01:57 | 18.42648 | 64.51677 | 30904 ft | 506 kts | 122° |
| 2026-04-20 01:57 | 18.38749 | 64.57845 | 30903 ft | 506 kts | 122° |
| 2026-04-20 01:58 | 18.34839 | 64.64024 | 30904 ft | 506 kts | 122° |
| 2026-04-20 01:58 | 18.30935 | 64.70189 | 30898 ft | 506 kts | 122° |
| 2026-04-20 01:59 | 18.27030 | 64.76348 | 30906 ft | 506 kts | 122° |
| 2026-04-20 01:59 | 18.23146 | 64.82469 | 30905 ft | 507 kts | 122° |
| 2026-04-20 02:00 | 18.19220 | 64.88651 | 30906 ft | 507 kts | 122° |
| 2026-04-20 02:00 | 18.15300 | 64.94815 | 30912 ft | 507 kts | 122° |
| 2026-04-20 02:01 | 18.11373 | 65.00987 | 30916 ft | 508 kts | 122° |
| 2026-04-20 02:01 | 18.07437 | 65.07167 | 30897 ft | 508 kts | 123° |
| 2026-04-20 02:02 | 18.03528 | 65.13297 | 30906 ft | 508 kts | 123° |
| 2026-04-20 02:02 | 17.99589 | 65.19469 | 30907 ft | 508 kts | 123° |
| 2026-04-20 02:03 | 17.95657 | 65.25625 | 30908 ft | 507 kts | 123° |
| 2026-04-20 02:03 | 17.91722 | 65.31780 | 30910 ft | 507 kts | 123° |
| 2026-04-20 02:04 | 17.87783 | 65.37934 | 30904 ft | 508 kts | 123° |
| 2026-04-20 02:04 | 17.83839 | 65.44092 | 30904 ft | 508 kts | 123° |
| 2026-04-20 02:05 | 17.79892 | 65.50249 | 30901 ft | 508 kts | 123° |
| 2026-04-20 02:05 | 17.75946 | 65.56397 | 30906 ft | 508 kts | 124° |
| 2026-04-20 02:06 | 17.72025 | 65.62502 | 30911 ft | 508 kts | 124° |
| 2026-04-20 02:06 | 17.68072 | 65.68652 | 30911 ft | 508 kts | 124° |
| 2026-04-20 02:07 | 17.64118 | 65.74798 | 30902 ft | 508 kts | 124° |
| 2026-04-20 02:07 | 17.60180 | 65.80948 | 30902 ft | 508 kts | 123° |
| 2026-04-20 02:08 | 17.56336 | 65.87177 | 30901 ft | 508 kts | 122° |
| 2026-04-20 02:08 | 17.52521 | 65.93417 | 30893 ft | 508 kts | 123° |
| 2026-04-20 02:09 | 17.48693 | 65.99642 | 30900 ft | 508 kts | 123° |
| 2026-04-20 02:09 | 17.44853 | 66.05860 | 30900 ft | 508 kts | 123° |
| 2026-04-20 02:10 | 17.41027 | 66.12041 | 30905 ft | 509 kts | 123° |
| 2026-04-20 02:10 | 17.37176 | 66.18259 | 30905 ft | 509 kts | 123° |
| 2026-04-20 02:11 | 17.33322 | 66.24478 | 30902 ft | 509 kts | 123° |
| 2026-04-20 02:11 | 17.29466 | 66.30696 | 30906 ft | 509 kts | 124° |
| 2026-04-20 02:12 | 17.25601 | 66.36920 | 30901 ft | 509 kts | 124° |
| 2026-04-20 02:12 | 17.21739 | 66.43134 | 30902 ft | 509 kts | 124° |
| 2026-04-20 02:13 | 17.17902 | 66.49305 | 30903 ft | 509 kts | 124° |
| 2026-04-20 02:13 | 17.14036 | 66.55515 | 30899 ft | 509 kts | 124° |
| 2026-04-20 02:14 | 17.10172 | 66.61715 | 30906 ft | 509 kts | 124° |
| 2026-04-20 02:14 | 17.06302 | 66.67920 | 30901 ft | 509 kts | 124° |
| 2026-04-20 02:15 | 17.02433 | 66.74118 | 30888 ft | 509 kts | 125° |
| 2026-04-20 02:15 | 16.98548 | 66.80337 | 30898 ft | 510 kts | 125° |
| 2026-04-20 02:16 | 16.94681 | 66.86520 | 30906 ft | 511 kts | 125° |
| 2026-04-20 02:16 | 16.91444 | 66.91693 | 30904 ft | 512 kts | 126° |
| 2026-04-20 02:17 | 16.87535 | 66.97932 | 30902 ft | 513 kts | 126° |
| 2026-04-20 02:17 | 16.83626 | 67.04167 | 30900 ft | 513 kts | 126° |
| 2026-04-20 02:18 | 16.79712 | 67.10404 | 30902 ft | 513 kts | 126° |
| 2026-04-20 02:18 | 16.75794 | 67.16644 | 30901 ft | 513 kts | 126° |
| 2026-04-20 02:19 | 16.71910 | 67.22823 | 30902 ft | 512 kts | 126° |
| 2026-04-20 02:19 | 16.68007 | 67.29026 | 30898 ft | 511 kts | 126° |
| 2026-04-20 02:20 | 16.64112 | 67.35212 | 30898 ft | 510 kts | 126° |
| 2026-04-20 02:20 | 16.60221 | 67.41385 | 30897 ft | 509 kts | 126° |
| 2026-04-20 02:21 | 16.54379 | 67.50644 | 30895 ft | 509 kts | 126° |
| 2026-04-20 02:22 | 16.50488 | 67.56805 | 30908 ft | 508 kts | 126° |
| 2026-04-20 02:22 | 16.46622 | 67.62919 | 30898 ft | 508 kts | 126° |
| 2026-04-20 02:23 | 16.42721 | 67.69084 | 30896 ft | 508 kts | 126° |
| 2026-04-20 02:23 | 16.38828 | 67.75232 | 30896 ft | 508 kts | 126° |
| 2026-04-20 02:24 | 16.34933 | 67.81379 | 30894 ft | 508 kts | 126° |
| 2026-04-20 02:24 | 16.31040 | 67.87517 | 30896 ft | 508 kts | 126° |
| 2026-04-20 02:25 | 16.27140 | 67.93662 | 30893 ft | 508 kts | 126° |
| 2026-04-20 02:25 | 16.23256 | 67.99809 | 30894 ft | 508 kts | 126° |
| 2026-04-20 02:26 | 16.19411 | 68.05927 | 30887 ft | 508 kts | 126° |
| 2026-04-20 02:26 | 16.15540 | 68.12084 | 30895 ft | 508 kts | 126° |
| 2026-04-20 02:27 | 16.11669 | 68.18231 | 30895 ft | 507 kts | 126° |
| 2026-04-20 02:27 | 16.07798 | 68.24369 | 30896 ft | 507 kts | 127° |
| 2026-04-20 02:28 | 16.03948 | 68.30468 | 30889 ft | 507 kts | 127° |
| 2026-04-20 02:28 | 16.00079 | 68.36593 | 30893 ft | 506 kts | 127° |
| 2026-04-20 02:29 | 15.96212 | 68.42710 | 30897 ft | 506 kts | 127° |
| 2026-04-20 02:29 | 15.92339 | 68.48829 | 30884 ft | 506 kts | 127° |
| 2026-04-20 02:30 | 15.88465 | 68.54948 | 30888 ft | 506 kts | 127° |
| 2026-04-20 02:30 | 15.84621 | 68.61013 | 30895 ft | 506 kts | 127° |
| 2026-04-20 02:31 | 15.80746 | 68.67121 | 30894 ft | 506 kts | 127° |
| 2026-04-20 02:31 | 15.76871 | 68.73224 | 30891 ft | 507 kts | 127° |
| 2026-04-20 02:32 | 15.72991 | 68.79331 | 30898 ft | 507 kts | 127° |
| 2026-04-20 02:32 | 15.69103 | 68.85445 | 30896 ft | 507 kts | 127° |
| 2026-04-20 02:33 | 15.65217 | 68.91552 | 30894 ft | 507 kts | 127° |
| 2026-04-20 02:33 | 15.61330 | 68.97653 | 30887 ft | 507 kts | 127° |
| 2026-04-20 02:34 | 15.57468 | 69.03713 | 30897 ft | 507 kts | 127° |
| 2026-04-20 02:34 | 15.53576 | 69.09813 | 30893 ft | 507 kts | 127° |
| 2026-04-20 02:35 | 15.49675 | 69.15922 | 30895 ft | 507 kts | 128° |
| 2026-04-20 02:35 | 15.45800 | 69.21987 | 30893 ft | 507 kts | 128° |
| 2026-04-20 02:36 | 15.41903 | 69.28081 | 30902 ft | 507 kts | 128° |
| 2026-04-20 02:36 | 15.38008 | 69.34167 | 30897 ft | 507 kts | 128° |
| 2026-04-20 02:37 | 15.34113 | 69.40248 | 30884 ft | 506 kts | 128° |
| 2026-04-20 02:37 | 15.30219 | 69.46324 | 30896 ft | 506 kts | 128° |
| 2026-04-20 02:38 | 15.26318 | 69.52405 | 30899 ft | 506 kts | 128° |
| 2026-04-20 02:38 | 15.22420 | 69.58477 | 30894 ft | 506 kts | 128° |
| 2026-04-20 02:39 | 15.18514 | 69.64556 | 30897 ft | 506 kts | 128° |
| 2026-04-20 02:39 | 15.14638 | 69.70587 | 30896 ft | 506 kts | 128° |
| 2026-04-20 02:40 | 15.10731 | 69.76663 | 30896 ft | 506 kts | 128° |
| 2026-04-20 02:40 | 15.06860 | 69.82749 | 30895 ft | 506 kts | 127° |
| 2026-04-20 02:41 | 15.02996 | 69.88848 | 30881 ft | 506 kts | 127° |
| 2026-04-20 02:41 | 14.99129 | 69.94939 | 30898 ft | 507 kts | 127° |
| 2026-04-20 02:42 | 14.95251 | 70.01035 | 30901 ft | 507 kts | 128° |
| 2026-04-20 02:42 | 14.91371 | 70.07129 | 30898 ft | 507 kts | 128° |
| 2026-04-20 02:43 | 14.87510 | 70.13189 | 30900 ft | 508 kts | 128° |
| 2026-04-20 02:43 | 14.83623 | 70.19284 | 30903 ft | 508 kts | 128° |
| 2026-04-20 02:44 | 14.79732 | 70.25381 | 30898 ft | 507 kts | 128° |
| 2026-04-20 02:44 | 14.75842 | 70.31472 | 30889 ft | 507 kts | 128° |
| 2026-04-20 02:45 | 14.71952 | 70.37559 | 30899 ft | 507 kts | 128° |
| 2026-04-20 02:45 | 14.68092 | 70.43594 | 30902 ft | 507 kts | 128° |
| 2026-04-20 02:46 | 14.64202 | 70.49671 | 30898 ft | 507 kts | 128° |
| 2026-04-20 02:46 | 14.60307 | 70.55752 | 30899 ft | 507 kts | 128° |
| 2026-04-20 02:47 | 14.56414 | 70.61825 | 30905 ft | 507 kts | 128° |
| 2026-04-20 02:47 | 14.52522 | 70.67892 | 30904 ft | 507 kts | 128° |
| 2026-04-20 02:48 | 14.48639 | 70.73940 | 30905 ft | 506 kts | 128° |
| 2026-04-20 02:48 | 14.44741 | 70.80008 | 30904 ft | 506 kts | 128° |
| 2026-04-20 02:49 | 14.40846 | 70.86066 | 30904 ft | 506 kts | 128° |
| 2026-04-20 02:49 | 14.36974 | 70.92086 | 30907 ft | 506 kts | 128° |
| 2026-04-20 02:50 | 14.33087 | 70.98148 | 30906 ft | 506 kts | 128° |
| 2026-04-20 02:50 | 14.29228 | 71.04263 | 30907 ft | 507 kts | 128° |
| 2026-04-20 02:51 | 14.25416 | 71.10317 | 30905 ft | 507 kts | 128° |
| 2026-04-20 02:51 | 14.21570 | 71.16410 | 30907 ft | 506 kts | 128° |
| 2026-04-20 02:52 | 14.17713 | 71.22505 | 30906 ft | 507 kts | 128° |
| 2026-04-20 02:52 | 14.13885 | 71.28549 | 30921 ft | 506 kts | 128° |
| 2026-04-20 02:53 | 14.10033 | 71.34627 | 30901 ft | 507 kts | 128° |
| 2026-04-20 02:53 | 14.06179 | 71.40705 | 30902 ft | 507 kts | 128° |
| 2026-04-20 02:54 | 14.02317 | 71.46790 | 30914 ft | 507 kts | 128° |
| 2026-04-20 02:54 | 13.98458 | 71.52867 | 30917 ft | 507 kts | 128° |
| 2026-04-20 02:55 | 13.94593 | 71.58949 | 30906 ft | 507 kts | 128° |
| 2026-04-20 02:55 | 13.90757 | 71.64980 | 30913 ft | 506 kts | 128° |
| 2026-04-20 02:56 | 13.86901 | 71.71041 | 30919 ft | 506 kts | 128° |
| 2026-04-20 02:56 | 13.83035 | 71.77110 | 30915 ft | 506 kts | 128° |
| 2026-04-20 02:57 | 13.79182 | 71.83157 | 30909 ft | 505 kts | 128° |
| 2026-04-20 02:57 | 13.75318 | 71.89215 | 30919 ft | 506 kts | 128° |
| 2026-04-20 02:58 | 13.71484 | 71.95225 | 30915 ft | 505 kts | 128° |
| 2026-04-20 02:58 | 13.67566 | 72.01217 | 30919 ft | 502 kts | 132° |
| 2026-04-20 02:59 | 13.63205 | 72.06802 | 30920 ft | 500 kts | 134° |
| 2026-04-20 02:59 | 13.58756 | 72.12305 | 30910 ft | 500 kts | 134° |
| 2026-04-20 03:00 | 13.54328 | 72.17834 | 30900 ft | 501 kts | 134° |
| 2026-04-20 03:00 | 13.49924 | 72.23388 | 30911 ft | 501 kts | 134° |
| 2026-04-20 03:01 | 13.45530 | 72.28946 | 30910 ft | 501 kts | 134° |
| 2026-04-20 03:01 | 13.41165 | 72.34463 | 30913 ft | 501 kts | 134° |
| 2026-04-20 03:02 | 13.36766 | 72.40016 | 30909 ft | 500 kts | 134° |
| 2026-04-20 03:02 | 13.32370 | 72.45560 | 30910 ft | 500 kts | 134° |
| 2026-04-20 03:03 | 13.27975 | 72.51099 | 30913 ft | 500 kts | 134° |
| 2026-04-20 03:03 | 13.23573 | 72.56642 | 30895 ft | 500 kts | 134° |
| 2026-04-20 03:04 | 13.19923 | 72.61237 | 30906 ft | 500 kts | 134° |
| 2026-04-20 03:04 | 13.15530 | 72.66764 | 30907 ft | 500 kts | 134° |
| 2026-04-20 03:05 | 13.11134 | 72.72291 | 30905 ft | 500 kts | 134° |
| 2026-04-20 03:05 | 13.06736 | 72.77816 | 30904 ft | 500 kts | 134° |
| 2026-04-20 03:06 | 13.02331 | 72.83348 | 30896 ft | 500 kts | 134° |
| 2026-04-20 03:06 | 12.97961 | 72.88832 | 30898 ft | 500 kts | 134° |
| 2026-04-20 03:07 | 12.93559 | 72.94352 | 30902 ft | 500 kts | 134° |
| 2026-04-20 03:07 | 12.89158 | 72.99870 | 30892 ft | 499 kts | 133° |
| 2026-04-20 03:08 | 12.84756 | 73.05383 | 30896 ft | 499 kts | 133° |
| 2026-04-20 03:08 | 12.80355 | 73.10892 | 30900 ft | 499 kts | 134° |
| 2026-04-20 03:09 | 12.75956 | 73.16396 | 30898 ft | 499 kts | 134° |
| 2026-04-20 03:09 | 12.71557 | 73.21896 | 30898 ft | 499 kts | 134° |
| 2026-04-20 03:10 | 12.67184 | 73.27360 | 30892 ft | 499 kts | 134° |
| 2026-04-20 03:10 | 12.62785 | 73.32855 | 30900 ft | 499 kts | 133° |
| 2026-04-20 03:11 | 12.58383 | 73.38348 | 30890 ft | 498 kts | 133° |
| 2026-04-20 03:11 | 12.53991 | 73.43827 | 30888 ft | 498 kts | 133° |
| 2026-04-20 03:12 | 12.49594 | 73.49308 | 30903 ft | 498 kts | 133° |
| 2026-04-20 03:12 | 12.45197 | 73.54787 | 30901 ft | 497 kts | 133° |
| 2026-04-20 03:13 | 12.40801 | 73.60259 | 30883 ft | 497 kts | 133° |
| 2026-04-20 03:13 | 12.36429 | 73.65700 | 30895 ft | 497 kts | 133° |
| 2026-04-20 03:14 | 12.32033 | 73.71167 | 30897 ft | 497 kts | 133° |
| 2026-04-20 03:14 | 12.27632 | 73.76638 | 30893 ft | 497 kts | 133° |
| 2026-04-20 03:15 | 12.23228 | 73.82108 | 30894 ft | 497 kts | 133° |
| 2026-04-20 03:15 | 12.18832 | 73.87566 | 30901 ft | 497 kts | 133° |
| 2026-04-20 03:16 | 12.14455 | 73.92997 | 30900 ft | 497 kts | 133° |
| 2026-04-20 03:16 | 12.10054 | 73.98455 | 30900 ft | 497 kts | 133° |
| 2026-04-20 03:17 | 12.05652 | 74.03909 | 30899 ft | 497 kts | 133° |
| 2026-04-20 03:17 | 12.01250 | 74.09363 | 30898 ft | 497 kts | 133° |
| 2026-04-20 03:18 | 11.96847 | 74.14814 | 30904 ft | 497 kts | 133° |
| 2026-04-20 03:18 | 11.92448 | 74.20256 | 30896 ft | 497 kts | 133° |
| 2026-04-20 03:19 | 11.88072 | 74.25668 | 30902 ft | 496 kts | 133° |
| 2026-04-20 03:19 | 11.83670 | 74.31108 | 30901 ft | 496 kts | 133° |
| 2026-04-20 03:20 | 11.79294 | 74.36513 | 30904 ft | 496 kts | 133° |
| 2026-04-20 03:20 | 11.74896 | 74.41943 | 30900 ft | 496 kts | 133° |
| 2026-04-20 03:21 | 11.70496 | 74.47372 | 30907 ft | 496 kts | 133° |
| 2026-04-20 03:21 | 11.66099 | 74.52795 | 30906 ft | 496 kts | 133° |
| 2026-04-20 03:22 | 11.61712 | 74.58202 | 30895 ft | 496 kts | 133° |
| 2026-04-20 03:22 | 11.57313 | 74.63621 | 30901 ft | 495 kts | 133° |
| 2026-04-20 03:23 | 11.52918 | 74.69032 | 30904 ft | 495 kts | 133° |
| 2026-04-20 03:23 | 11.48549 | 74.74408 | 30909 ft | 495 kts | 133° |
| 2026-04-20 03:24 | 11.44154 | 74.79814 | 30909 ft | 495 kts | 133° |
| 2026-04-20 03:24 | 11.39763 | 74.85214 | 30910 ft | 495 kts | 133° |
| 2026-04-20 03:25 | 11.35364 | 74.90619 | 30908 ft | 495 kts | 133° |
| 2026-04-20 03:25 | 11.30964 | 74.96018 | 30910 ft | 495 kts | 133° |
| 2026-04-20 03:26 | 11.26562 | 75.01418 | 30910 ft | 495 kts | 133° |
| 2026-04-20 03:26 | 11.22185 | 75.06784 | 30909 ft | 495 kts | 133° |
| 2026-04-20 03:27 | 11.17782 | 75.12182 | 30907 ft | 495 kts | 133° |
| 2026-04-20 03:27 | 11.13371 | 75.17587 | 30907 ft | 495 kts | 133° |
| 2026-04-20 03:28 | 11.08958 | 75.22992 | 30906 ft | 495 kts | 133° |
| 2026-04-20 03:28 | 11.02370 | 75.31055 | 30908 ft | 495 kts | 133° |
| 2026-04-20 03:29 | 10.97957 | 75.36451 | 30904 ft | 495 kts | 133° |
| 2026-04-20 03:29 | 10.93555 | 75.41833 | 30901 ft | 495 kts | 133° |
| 2026-04-20 03:30 | 10.89179 | 75.47180 | 30904 ft | 495 kts | 133° |